Time;durP1;ratioP1;P1;durP2;ratioP2;P2;SDS_P1;SDS_P2;PMS_P1;PMS_P2;Temp;Humidity;BMP_temperature;BMP_pressure;BME280_temperature;BME280_humidity;BME280_pressure;Samples;Min_cycle;Max_cycle;Signal;HPM_P1;HPM_P2
2022/05/12 00:00:30;;;;;;;8.77;2.92;;;16.70;99.90;;;;;;5031653;28;20035;-81
2022/05/12 00:02:57;;;;;;;9.90;2.85;;;16.60;99.90;;;;;;5031349;28;20087;-81
2022/05/12 00:05:23;;;;;;;6.65;2.33;;;16.50;99.90;;;;;;5030070;28;20037;-81
2022/05/12 00:07:50;;;;;;;8.93;2.38;;;16.50;99.90;;;;;;5029849;28;20382;-81
2022/05/12 00:10:19;;;;;;;6.95;2.80;;;16.50;99.90;;;;;;5029895;28;20094;-81
2022/05/12 00:12:47;;;;;;;8.70;2.55;;;16.50;99.90;;;;;;5031516;28;20083;-81
2022/05/12 00:15:21;;;;;;;9.25;2.63;;;16.50;99.90;;;;;;5031396;28;20041;-81
2022/05/12 00:17:48;;;;;;;8.70;2.47;;;16.50;99.90;;;;;;5029631;28;20470;-81
2022/05/12 00:20:16;;;;;;;11.48;2.60;;;16.50;99.90;;;;;;5029653;28;20159;-81
2022/05/12 00:22:43;;;;;;;14.65;2.78;;;16.50;99.90;;;;;;5031133;28;20140;-77
2022/05/12 00:25:15;;;;;;;7.90;2.58;;;16.40;99.90;;;;;;5031394;28;20124;-81
2022/05/12 00:27:41;;;;;;;6.00;2.80;;;16.40;99.90;;;;;;5029928;28;20041;-81
2022/05/12 00:30:09;;;;;;;11.52;3.03;;;16.40;99.90;;;;;;5030136;28;20047;-81
2022/05/12 00:32:38;;;;;;;5.95;2.30;;;16.50;99.90;;;;;;5029565;28;20125;-81
2022/05/12 00:35:06;;;;;;;8.45;2.80;;;16.50;99.90;;;;;;5031193;28;20025;-81
2022/05/12 00:37:32;;;;;;;11.10;2.88;;;16.50;99.90;;;;;;5030991;28;20025;-81
2022/05/12 00:39:58;;;;;;;18.92;3.05;;;16.50;99.90;;;;;;5030750;28;20037;-81
2022/05/12 00:42:24;;;;;;;10.43;3.00;;;16.60;99.90;;;;;;5030663;28;20134;-81
2022/05/12 00:44:50;;;;;;;10.53;2.50;;;16.60;99.90;;;;;;5030231;28;20060;-81
2022/05/12 00:47:16;;;;;;;8.90;2.80;;;16.70;99.90;;;;;;5031145;28;20033;-81
2022/05/12 00:49:45;;;;;;;14.80;2.60;;;16.70;99.90;;;;;;5030688;28;20040;-82
2022/05/12 00:52:13;;;;;;;9.63;2.42;;;16.90;99.80;;;;;;5030674;28;20107;-81
2022/05/12 00:54:45;;;;;;;8.35;2.10;;;17.00;99.60;;;;;;5030713;28;20025;-81
2022/05/12 00:57:19;;;;;;;9.05;2.90;;;17.00;99.40;;;;;;5030746;28;20029;-82
2022/05/12 00:59:45;;;;;;;10.40;2.30;;;17.10;99.40;;;;;;5030355;28;20037;-81
2022/05/12 01:02:17;;;;;;;10.73;2.88;;;17.00;99.40;;;;;;5030322;28;20026;-83
2022/05/12 01:04:47;;;;;;;8.85;2.60;;;17.10;99.10;;;;;;5030914;28;20026;-81
2022/05/12 01:07:14;;;;;;;9.50;2.28;;;17.10;99.50;;;;;;5029060;28;20090;-83
2022/05/12 01:09:41;;;;;;;6.75;2.10;;;17.10;99.40;;;;;;5029036;28;20086;-82
2022/05/12 01:12:07;;;;;;;;;;;17.10;99.60;;;;;;5029883;28;20071;-81
2022/05/12 01:14:33;;;;;;;14.80;2.75;;;17.00;99.90;;;;;;5028667;28;19916;-81
2022/05/12 01:17:02;;;;;;;9.53;2.87;;;16.90;99.90;;;;;;5028876;28;20033;-82
2022/05/12 01:19:48;;;;;;;10.57;2.72;;;16.80;99.90;;;;;;5030341;28;20381;-83
2022/05/12 01:23:31;;;;;;;7.82;2.53;;;16.70;99.90;;;;;;5030339;28;20576;-80
2022/05/12 01:26:02;;;;;;;7.95;2.28;;;16.70;99.90;;;;;;4967759;28;20051;-82
2022/05/12 01:28:29;;;;;;;10.50;2.60;;;16.70;99.90;;;;;;4969873;28;20463;-83
2022/05/12 01:30:55;;;;;;;;;;;16.70;99.90;;;;;;4969879;28;20500;-82
2022/05/12 01:33:22;;;;;;;11.48;2.42;;;16.70;99.90;;;;;;4969901;28;19906;-80
2022/05/12 01:35:48;;;;;;;9.90;2.75;;;16.70;99.90;;;;;;4969465;28;20023;-81
2022/05/12 01:38:15;;;;;;;8.05;2.55;;;16.60;99.90;;;;;;4969425;28;20046;-80
2022/05/12 01:40:43;;;;;;;11.85;2.78;;;16.60;99.90;;;;;;4953003;28;20031;-81
2022/05/12 01:43:10;;;;;;;7.25;2.70;;;16.60;99.90;;;;;;4952795;28;20039;-80
2022/05/12 01:45:36;;;;;;;13.60;2.85;;;16.50;99.90;;;;;;4952835;28;20053;-81
2022/05/12 01:48:04;;;;;;;10.18;2.63;;;16.60;99.90;;;;;;4952681;28;20022;-81
2022/05/12 01:50:30;;;;;;;7.55;2.38;;;16.60;99.90;;;;;;4969075;28;20122;-81
2022/05/12 01:52:56;;;;;;;9.23;2.40;;;16.60;99.90;;;;;;4969245;28;20514;-81
2022/05/12 01:55:26;;;;;;;9.93;3.30;;;16.50;99.90;;;;;;4971647;28;20030;-81
2022/05/12 01:57:53;;;;;;;11.00;3.65;;;16.50;99.90;;;;;;5030404;28;20021;-81
2022/05/12 02:00:25;;;;;;;6.95;2.40;;;16.50;99.90;;;;;;5028496;28;20037;-81
2022/05/12 02:02:51;;;;;;;6.00;2.22;;;16.60;99.90;;;;;;5028216;28;20402;-81
2022/05/12 02:05:18;;;;;;;8.57;2.42;;;16.40;99.90;;;;;;5028481;28;20029;-81
2022/05/12 02:07:47;;;;;;;7.60;2.70;;;16.40;99.90;;;;;;5031293;28;20062;-80
2022/05/12 02:10:18;;;;;;;11.15;2.90;;;16.40;99.90;;;;;;5028615;28;20116;-81
2022/05/12 02:12:44;;;;;;;8.65;2.67;;;16.30;99.90;;;;;;5030449;28;20071;-80
2022/05/12 02:15:11;;;;;;;6.17;2.33;;;16.30;99.90;;;;;;5029978;28;20029;-81
2022/05/12 02:17:38;;;;;;;8.63;2.50;;;16.20;99.90;;;;;;5027916;28;20040;-81
2022/05/12 02:20:05;;;;;;;11.27;2.63;;;16.20;99.90;;;;;;5029315;28;20084;-81
2022/05/12 02:22:30;;;;;;;;;;;16.20;99.90;;;;;;5030414;28;20068;-80
2022/05/12 02:24:56;;;;;;;10.70;2.80;;;16.20;99.90;;;;;;5031322;28;19905;-80
2022/05/12 02:27:23;;;;;;;7.15;2.50;;;16.20;99.90;;;;;;5031839;28;20029;-81
2022/05/12 02:29:49;;;;;;;12.65;3.20;;;16.10;99.90;;;;;;5033365;28;20029;-80
2022/05/12 02:32:15;;;;;;;8.53;2.80;;;16.00;99.90;;;;;;5033224;28;20018;-80
2022/05/12 02:34:47;;;;;;;14.43;2.77;;;16.10;99.90;;;;;;5033322;28;20021;-79
2022/05/12 02:37:13;;;;;;;9.88;2.70;;;16.10;99.90;;;;;;5032982;28;20030;-80
2022/05/12 02:39:45;;;;;;;9.97;2.80;;;16.10;99.90;;;;;;5033194;28;20425;-81
2022/05/12 02:42:11;;;;;;;12.27;3.10;;;16.00;99.90;;;;;;5033210;28;20144;-80
2022/05/12 02:44:38;;;;;;;9.85;2.97;;;16.10;99.90;;;;;;5032978;28;20183;-80
2022/05/12 02:47:07;;;;;;;9.35;3.13;;;16.00;99.90;;;;;;5032918;28;20065;-81
2022/05/12 02:49:34;;;;;;;8.27;3.03;;;16.00;99.90;;;;;;5033268;28;20029;-81
2022/05/12 02:52:00;;;;;;;8.50;2.70;;;16.00;99.90;;;;;;5033125;28;20132;-81
2022/05/12 02:54:26;;;;;;;11.87;2.57;;;16.00;99.90;;;;;;5032779;28;20084;-81
2022/05/12 02:56:55;;;;;;;11.60;2.92;;;16.10;99.90;;;;;;5030841;28;20088;-81
2022/05/12 02:59:22;;;;;;;10.77;3.03;;;16.10;99.90;;;;;;5030692;28;20108;-80
2022/05/12 03:01:48;;;;;;;;;;;16.00;99.90;;;;;;5032615;28;20026;-80
2022/05/12 03:04:14;;;;;;;8.50;2.42;;;16.00;99.90;;;;;;5030662;28;19909;-80
2022/05/12 03:06:41;;;;;;;16.40;2.80;;;16.00;99.90;;;;;;5032280;28;20049;-80
2022/05/12 03:09:07;;;;;;;11.65;2.63;;;16.10;99.90;;;;;;5032686;28;20795;-81
2022/05/12 03:11:33;;;;;;;7.40;2.10;;;16.10;99.90;;;;;;5033023;28;20033;-82
2022/05/12 03:13:59;;;;;;;18.73;3.10;;;16.10;99.90;;;;;;5032800;28;20022;-80
2022/05/12 03:16:26;;;;;;;11.40;2.63;;;16.20;99.90;;;;;;5033085;28;20438;-80
2022/05/12 03:18:53;;;;;;;8.02;2.65;;;16.30;99.90;;;;;;5032890;28;20029;-80
2022/05/12 03:21:20;;;;;;;13.02;3.72;;;16.30;99.80;;;;;;5032690;28;20128;-80
2022/05/12 03:23:47;;;;;;;9.35;3.00;;;16.40;99.70;;;;;;5033530;28;20025;-81
2022/05/12 03:26:13;;;;;;;8.38;2.45;;;16.40;99.50;;;;;;5034078;28;20022;-81
2022/05/12 03:28:41;;;;;;;12.98;2.85;;;16.40;99.00;;;;;;5033578;28;20033;-81
2022/05/12 03:31:08;;;;;;;8.57;2.72;;;16.50;99.00;;;;;;5033682;28;20107;-80
2022/05/12 03:33:35;;;;;;;14.18;2.75;;;16.50;99.20;;;;;;5033379;28;20056;-80
2022/05/12 03:36:02;;;;;;;8.35;2.88;;;16.50;98.90;;;;;;5033269;28;20022;-80
2022/05/12 03:38:28;;;;;;;7.50;2.30;;;16.60;98.60;;;;;;5033471;28;20030;-80
2022/05/12 03:40:54;;;;;;;9.90;2.43;;;16.60;98.70;;;;;;5033541;28;20033;-80
2022/05/12 03:46:06;;;;;;;9.10;2.00;;;16.60;98.90;;;;;;5032916;28;20143;-80
2022/05/12 03:48:35;;;;;;;13.07;2.55;;;16.60;98.90;;;;;;5031520;28;20059;-80
2022/05/12 03:51:02;;;;;;;13.23;2.58;;;16.40;99.40;;;;;;5033095;28;20022;-80
2022/05/12 03:53:29;;;;;;;10.75;2.80;;;16.40;99.30;;;;;;5032911;28;20180;-80
2022/05/12 03:55:56;;;;;;;6.88;2.40;;;16.40;99.30;;;;;;5031288;28;20036;-80
2022/05/12 03:58:22;;;;;;;8.20;2.42;;;16.40;99.10;;;;;;5032648;28;20443;-80
2022/05/12 04:00:49;;;;;;;15.00;3.08;;;16.40;99.00;;;;;;5033390;28;20499;-80
2022/05/12 04:03:16;;;;;;;7.10;2.55;;;16.50;98.80;;;;;;5032313;28;20025;-80
2022/05/12 04:05:43;;;;;;;13.18;2.63;;;16.40;98.80;;;;;;5032974;28;20025;-80
2022/05/12 04:08:09;;;;;;;12.77;2.50;;;16.60;98.10;;;;;;5032480;28;20033;-81
2022/05/12 04:10:36;;;;;;;13.38;3.30;;;16.70;97.90;;;;;;5032794;28;20147;-81
2022/05/12 04:13:02;;;;;;;10.60;2.42;;;16.90;97.70;;;;;;5032650;28;20028;-80
2022/05/12 04:15:28;;;;;;;9.60;2.50;;;16.90;97.50;;;;;;5032638;28;20017;-80
2022/05/12 04:18:03;;;;;;;7.85;2.80;;;16.90;97.40;;;;;;5032809;28;20299;-80
2022/05/12 04:20:31;;;;;;;9.93;2.47;;;16.90;97.50;;;;;;5033312;28;20038;-80
2022/05/12 04:22:57;;;;;;;12.10;3.10;;;16.90;97.50;;;;;;5032987;28;20018;-81
2022/05/12 04:25:24;;;;;;;8.57;2.30;;;16.80;97.50;;;;;;5033658;28;20479;-80
2022/05/12 04:27:50;;;;;;;11.40;2.65;;;16.80;97.80;;;;;;5033068;28;20021;-80
2022/05/12 04:30:19;;;;;;;14.30;2.30;;;16.80;97.50;;;;;;5031749;28;20347;-80
2022/05/12 04:32:45;;;;;;;8.80;2.58;;;16.80;97.50;;;;;;5031661;28;20022;-80
2022/05/12 04:35:16;;;;;;;9.53;2.63;;;16.80;97.50;;;;;;5033454;28;20053;-81
2022/05/12 04:37:47;;;;;;;16.77;2.67;;;16.80;97.50;;;;;;5033600;28;20252;-77
2022/05/12 04:40:18;;;;;;;14.82;2.60;;;16.90;97.50;;;;;;5033290;28;20125;-80
2022/05/12 04:42:46;;;;;;;11.50;2.60;;;16.90;97.50;;;;;;5033453;28;20021;-80
2022/05/12 04:45:14;;;;;;;9.23;2.83;;;16.90;97.50;;;;;;5031153;28;20029;-81
2022/05/12 04:47:40;;;;;;;6.75;2.33;;;17.00;97.40;;;;;;5032548;28;20029;-80
2022/05/12 04:50:09;;;;;;;7.30;2.40;;;17.00;97.50;;;;;;5021746;28;20115;-79
2022/05/12 04:52:35;;;;;;;8.52;2.45;;;17.10;97.40;;;;;;5012743;28;20041;-80
2022/05/12 04:55:01;;;;;;;9.90;2.50;;;17.20;97.40;;;;;;5013054;28;20018;-80
2022/05/12 04:57:27;;;;;;;11.37;2.60;;;17.20;97.40;;;;;;5013305;28;20261;-80
2022/05/12 04:59:55;;;;;;;14.57;3.60;;;17.30;97.10;;;;;;5012558;28;20034;-80
2022/05/12 05:02:22;;;;;;;12.70;2.78;;;17.50;96.90;;;;;;5013022;28;20467;-80
2022/05/12 05:04:49;;;;;;;;;;;17.50;96.80;;;;;;5013408;28;20100;-80
2022/05/12 05:07:16;;;;;;;7.50;2.47;;;17.80;96.60;;;;;;5012393;28;20349;-82
2022/05/12 05:09:43;;;;;;;11.85;2.45;;;17.90;96.40;;;;;;5011386;28;20112;-81
2022/05/12 05:12:09;;;;;;;11.02;3.08;;;18.10;96.10;;;;;;5012796;28;20022;-81
2022/05/12 05:14:36;;;;;;;7.78;2.50;;;18.40;96.10;;;;;;5013311;28;20538;-77
2022/05/12 05:17:02;;;;;;;7.65;2.30;;;19.20;95.50;;;;;;5013237;28;20026;-81
2022/05/12 05:19:28;;;;;;;10.90;2.30;;;20.50;94.20;;;;;;5013138;28;20033;-77
2022/05/12 05:21:54;;;;;;;12.38;2.53;;;21.70;92.50;;;;;;5013067;28;20483;-81
2022/05/12 05:24:20;;;;;;;14.13;2.70;;;22.60;91.10;;;;;;5011639;28;20049;-82
2022/05/12 05:26:46;;;;;;;14.55;2.72;;;23.30;90.20;;;;;;5011363;28;20459;-81
2022/05/12 05:29:13;;;;;;;12.63;2.35;;;23.70;88.80;;;;;;5011438;28;20026;-78
2022/05/12 05:31:39;;;;;;;12.55;2.75;;;24.00;87.80;;;;;;5011993;28;20025;-84
2022/05/12 05:34:05;;;;;;;9.18;1.90;;;23.90;86.50;;;;;;5012237;28;20026;-82
2022/05/12 05:36:31;;;;;;;10.10;1.85;;;24.10;85.80;;;;;;5012717;28;20462;-83
2022/05/12 05:38:58;;;;;;;11.30;2.60;;;23.80;86.10;;;;;;5010729;28;20065;-83
2022/05/12 05:41:24;;;;;;;7.25;2.55;;;23.20;87.50;;;;;;5011424;28;20018;-82
2022/05/12 05:43:50;;;;;;;13.48;2.42;;;23.50;87.10;;;;;;5011506;28;20033;-84
2022/05/12 05:46:29;;;;;;;9.23;2.30;;;23.80;86.60;;;;;;5011395;28;20050;-84
2022/05/12 05:48:55;;;;;;;14.52;2.88;;;25.10;84.10;;;;;;5011727;28;20113;-84
2022/05/12 05:54:24;;;;;;;10.98;2.40;;;25.00;82.60;;;;;;5019403;28;20087;-86
2022/05/12 05:56:50;;;;;;;14.15;2.97;;;25.40;81.90;;;;;;5031249;28;20049;-85
2022/05/12 05:59:16;;;;;;;13.40;2.53;;;26.40;80.60;;;;;;5033284;28;20045;-84
2022/05/12 06:01:42;;;;;;;12.10;2.40;;;27.20;78.90;;;;;;5034884;28;20024;-84
2022/05/12 06:04:08;;;;;;;5.70;1.83;;;28.20;77.40;;;;;;5034385;28;20025;-84
2022/05/12 06:06:35;;;;;;;11.43;2.30;;;28.80;75.40;;;;;;5034480;28;20033;-86
2022/05/12 06:09:02;;;;;;;13.68;2.65;;;29.60;73.90;;;;;;5034174;28;20026;-85
2022/05/12 06:11:28;;;;;;;13.00;2.38;;;29.60;72.40;;;;;;5034426;28;20204;-85
2022/05/12 06:13:54;;;;;;;14.38;2.15;;;30.70;71.90;;;;;;5033964;28;20462;-84
2022/05/12 06:16:20;;;;;;;;;;;32.00;68.90;;;;;;5035712;28;20017;-86
2022/05/12 06:18:47;;;;;;;11.00;1.90;;;33.40;66.50;;;;;;5035243;28;20004;-85
2022/05/12 06:21:13;;;;;;;11.77;2.25;;;33.10;64.50;;;;;;5034356;28;20091;-84
2022/05/12 06:23:40;;;;;;;8.25;1.67;;;33.20;63.30;;;;;;5034245;28;20064;-84
2022/05/12 06:26:13;;;;;;;10.63;2.15;;;32.40;63.80;;;;;;5034965;28;20033;-84
2022/05/12 06:28:41;;;;;;;7.28;2.10;;;32.40;63.60;;;;;;5035770;28;20331;-83
2022/05/12 06:31:07;;;;;;;10.23;2.08;;;31.70;63.70;;;;;;5035251;28;20101;-84
2022/05/12 06:33:33;;;;;;;;;;;31.60;65.00;;;;;;5035580;28;20029;-84
2022/05/12 06:36:11;;;;;;;14.80;2.50;;;32.40;63.60;;;;;;5035187;28;20356;-84
2022/05/12 06:38:38;;;;;;;16.10;2.10;;;32.60;62.60;;;;;;5034710;28;20033;-84
2022/05/12 06:41:04;;;;;;;11.52;2.13;;;33.10;61.70;;;;;;5033462;28;20040;-84
2022/05/12 06:43:31;;;;;;;7.95;2.03;;;33.40;62.00;;;;;;5035363;28;20022;-85
2022/05/12 06:45:57;;;;;;;13.85;2.38;;;34.60;58.50;;;;;;5034720;28;20057;-84
2022/05/12 06:48:24;;;;;;;6.22;1.83;;;34.70;59.40;;;;;;5034680;28;20029;-84
2022/05/12 06:50:50;;;;;;;7.97;2.08;;;33.90;58.40;;;;;;5033997;28;20021;-85
2022/05/12 06:53:16;;;;;;;12.18;2.38;;;33.10;59.40;;;;;;5035793;28;20501;-84
2022/05/12 06:55:46;;;;;;;11.10;2.45;;;33.90;58.70;;;;;;5035558;28;20108;-84
2022/05/12 06:58:17;;;;;;;10.57;2.42;;;33.30;59.00;;;;;;5034089;28;20034;-84
2022/05/12 07:00:44;;;;;;;7.05;2.17;;;33.80;59.70;;;;;;5034817;28;20064;-84
2022/05/12 07:03:12;;;;;;;11.18;2.17;;;34.20;58.70;;;;;;5035847;28;20025;-85
2022/05/12 07:05:40;;;;;;;14.55;2.30;;;33.60;59.50;;;;;;5035106;28;20033;-85
2022/05/12 07:08:07;;;;;;;11.73;2.20;;;33.60;59.10;;;;;;5033649;28;20029;-84
2022/05/12 07:10:34;;;;;;;11.77;2.25;;;33.80;59.00;;;;;;5034352;28;20454;-86
2022/05/12 07:13:00;;;;;;;12.52;2.60;;;31.90;60.60;;;;;;5034921;28;20029;-84
2022/05/12 07:15:27;;;;;;;12.55;2.60;;;31.30;61.60;;;;;;5034917;28;20025;-85
2022/05/12 07:17:55;;;;;;;14.27;2.30;;;30.70;61.70;;;;;;5034644;28;20029;-84
2022/05/12 07:28:38;;;;;;;11.75;2.60;;;28.40;67.40;;;;;;5034241;28;20072;-85
2022/05/12 07:31:06;;;;;;;7.85;1.80;;;27.90;68.30;;;;;;5033903;28;20026;-83
2022/05/12 07:33:35;;;;;;;11.13;2.28;;;27.60;69.00;;;;;;5032797;28;20033;-83
2022/05/12 07:36:09;;;;;;;14.27;2.33;;;27.40;69.50;;;;;;5031126;22;20050;-84
2022/05/12 07:38:36;;;;;;;8.77;2.13;;;27.30;69.20;;;;;;5012867;28;20041;-82
2022/05/12 07:41:02;;;;;;;14.10;2.47;;;27.30;69.70;;;;;;5014311;28;20029;-84
2022/05/12 07:43:28;;;;;;;10.02;2.28;;;27.10;69.70;;;;;;5014616;28;20389;-87
2022/05/12 07:45:54;;;;;;;10.32;2.17;;;27.10;69.50;;;;;;5014140;28;20030;-85
2022/05/12 07:48:20;;;;;;;12.32;2.10;;;27.10;70.40;;;;;;5013795;28;20439;-84
2022/05/12 07:50:46;;;;;;;14.65;2.28;;;27.00;70.90;;;;;;5011357;28;20518;-84
2022/05/12 07:53:16;;;;;;;8.40;2.28;;;26.80;71.70;;;;;;5011045;28;20049;-84
2022/05/12 07:55:42;;;;;;;7.53;2.17;;;27.00;71.40;;;;;;5012647;28;20018;-84
2022/05/12 07:58:10;;;;;;;9.25;2.17;;;27.20;71.40;;;;;;5012669;28;20478;-84
2022/05/12 08:00:36;;;;;;;14.50;2.58;;;27.00;70.40;;;;;;5014678;28;20044;-85
2022/05/12 08:03:03;;;;;;;6.93;2.10;;;26.90;71.10;;;;;;5032002;28;20340;-84
2022/05/12 08:05:30;;;;;;;11.52;2.75;;;27.00;70.90;;;;;;5031986;28;20037;-84
2022/05/12 08:07:57;;;;;;;9.20;2.67;;;27.20;71.50;;;;;;5032408;28;20125;-84
2022/05/12 08:10:24;;;;;;;8.18;2.10;;;27.20;70.80;;;;;;5032414;28;20017;-84
2022/05/12 08:12:50;;;;;;;12.35;2.30;;;27.10;71.40;;;;;;5030067;28;20367;-83
2022/05/12 08:15:18;;;;;;;12.05;2.75;;;26.90;71.50;;;;;;5032286;28;20022;-84
2022/05/12 08:17:44;;;;;;;51.42;5.13;;;26.90;71.70;;;;;;5032954;28;20032;-85
2022/05/12 08:20:14;;;;;;;;;;;27.00;72.40;;;;;;5034113;28;20112;-84
2022/05/12 08:22:40;;;;;;;14.18;2.80;;;27.20;71.30;;;;;;5032897;28;19932;-87
2022/05/12 08:25:09;;;;;;;10.40;2.30;;;26.90;72.30;;;;;;5033521;28;20102;-87
2022/05/12 08:27:36;;;;;;;9.10;2.00;;;26.60;72.80;;;;;;5033627;28;20072;-84
2022/05/12 08:30:04;;;;;;;9.20;2.50;;;26.20;72.60;;;;;;5033115;28;20528;-85
2022/05/12 08:32:39;;;;;;;14.23;2.50;;;26.50;73.70;;;;;;5033308;28;20386;-86
2022/05/12 08:35:06;;;;;;;17.50;2.97;;;27.10;70.60;;;;;;5031127;28;20030;-83
2022/05/12 08:37:31;;;;;;;;;;;27.40;70.20;;;;;;5034101;28;20017;-88
2022/05/12 08:40:04;;;;;;;;;;;27.80;72.50;;;;;;5032851;28;19913;-89
2022/05/12 08:42:42;;;;;;;9.98;2.53;;;28.20;76.00;;;;;;5032589;28;19905;-88
2022/05/12 08:45:11;;;;;;;14.98;2.75;;;28.50;75.30;;;;;;5033488;28;20025;-89
2022/05/12 08:47:45;;;;;;;11.10;2.42;;;28.80;75.40;;;;;;5033769;28;20085;-87
2022/05/12 08:50:27;;;;;;;10.18;2.35;;;28.80;75.70;;;;;;5033234;28;20434;-90
2022/05/12 08:53:01;;;;;;;11.60;2.75;;;28.80;76.40;;;;;;5033632;28;20021;-89
2022/05/12 08:55:32;;;;;;;11.82;2.80;;;28.50;76.40;;;;;;5033421;28;20048;-90
2022/05/12 08:58:08;;;;;;;13.90;3.17;;;28.40;77.10;;;;;;5033389;28;20032;-89
2022/05/12 09:00:44;;;;;;;13.52;2.92;;;28.50;77.60;;;;;;5032801;28;20486;-90
2022/05/12 09:03:24;;;;;;;10.15;2.95;;;28.60;77.20;;;;;;5031622;28;20116;-87
2022/05/12 09:06:14;;;;;;;13.77;2.65;;;28.30;77.00;;;;;;4993899;28;20052;-89
2022/05/12 09:09:02;;;;;;;9.48;2.50;;;28.20;76.70;;;;;;4992739;28;20062;-89
2022/05/12 09:11:41;;;;;;;10.52;2.47;;;28.20;76.70;;;;;;4993133;28;20076;-89
2022/05/12 09:14:17;;;;;;;8.75;2.40;;;27.70;77.60;;;;;;4992889;28;20030;-90
2022/05/12 09:16:45;;;;;;;14.10;2.97;;;27.90;77.60;;;;;;4992273;28;20026;-89
2022/05/12 09:19:15;;;;;;;16.05;2.90;;;27.60;77.90;;;;;;4991836;28;20038;-90
2022/05/12 09:21:49;;;;;;;12.52;3.13;;;27.70;78.70;;;;;;4992064;28;20090;-91
2022/05/12 09:24:46;;;;;;;13.60;3.10;;;27.90;78.20;;;;;;4994625;28;20049;-91
2022/05/12 09:27:14;;;;;;;13.88;3.22;;;28.10;77.80;;;;;;4993096;28;20027;-91
2022/05/12 09:29:48;;;;;;;13.25;3.08;;;28.20;77.60;;;;;;4994342;28;20034;-90
2022/05/12 09:32:20;;;;;;;12.15;2.90;;;28.20;76.50;;;;;;5000140;28;20021;-88
2022/05/12 09:35:02;;;;;;;12.90;2.85;;;28.00;77.20;;;;;;4995230;28;20040;-90
2022/05/12 09:37:31;;;;;;;12.63;3.10;;;28.20;78.30;;;;;;4999596;28;20042;-90
2022/05/12 09:40:14;;;;;;;15.05;3.20;;;27.80;79.90;;;;;;5019873;28;20049;-88
2022/05/12 09:42:45;;;;;;;11.88;2.80;;;27.70;80.50;;;;;;5035498;28;20026;-87
2022/05/12 09:45:32;;;;;;;9.18;2.65;;;27.80;81.80;;;;;;5024557;28;20029;-87
2022/05/12 09:48:20;;;;;;;12.70;2.85;;;27.70;80.20;;;;;;5015777;28;20022;-88
2022/05/12 09:50:47;;;;;;;12.55;3.25;;;27.70;79.70;;;;;;5017435;28;20022;-90
2022/05/12 09:53:22;;;;;;;13.35;2.60;;;27.60;79.30;;;;;;5017533;28;20109;-90
2022/05/12 09:56:08;;;;;;;14.63;2.90;;;27.50;78.00;;;;;;5017105;28;20026;-89
2022/05/12 09:58:46;;;;;;;;;;;27.20;78.20;;;;;;5015962;28;20133;-90
2022/05/12 10:01:17;;;;;;;13.90;2.85;;;27.20;79.30;;;;;;5016588;28;19995;-92
2022/05/12 10:09:32;;;;;;;18.92;2.70;;;27.20;79.30;;;;;;5028933;28;20033;-90
2022/05/12 10:12:41;;;;;;;14.38;2.78;;;26.90;79.60;;;;;;5011419;28;20098;-89
2022/05/12 10:15:38;;;;;;;13.10;2.95;;;26.80;78.20;;;;;;5006821;28;20453;-91
2022/05/12 10:18:47;;;;;;;15.98;2.53;;;26.60;77.10;;;;;;5015786;28;20121;-89
2022/05/12 10:21:26;;;;;;;14.32;2.92;;;26.20;76.20;;;;;;5015666;28;20105;-90
2022/05/12 10:24:10;;;;;;;11.98;2.60;;;26.00;76.30;;;;;;5022718;28;20515;-90
2022/05/12 10:26:50;;;;;;;11.07;2.70;;;25.90;76.00;;;;;;5034634;28;20401;-91
2022/05/12 10:29:32;;;;;;;13.75;2.53;;;26.00;75.70;;;;;;5035021;28;20194;-91
2022/05/12 10:32:04;;;;;;;15.15;3.17;;;25.90;76.70;;;;;;4995707;28;20027;-92
2022/05/12 10:34:56;;;;;;;16.23;2.95;;;25.90;77.20;;;;;;4996580;28;20030;-92
2022/05/12 10:37:50;;;;;;;13.00;2.42;;;26.10;76.90;;;;;;4998126;28;20487;-91
2022/05/12 10:40:26;;;;;;;10.13;2.47;;;26.20;75.70;;;;;;4995806;28;20136;-91
2022/05/12 10:43:10;;;;;;;9.07;2.33;;;26.20;76.20;;;;;;4996819;28;20026;-92
2022/05/12 10:46:13;;;;;;;13.88;2.60;;;26.40;75.70;;;;;;4997308;28;20057;-91
2022/05/12 10:49:10;;;;;;;13.43;2.80;;;26.50;75.60;;;;;;4998955;28;20030;-89
2022/05/12 10:52:12;;;;;;;11.85;2.25;;;26.60;73.50;;;;;;4997279;28;20030;-92
2022/05/12 10:55:00;;;;;;;13.23;3.28;;;26.70;73.00;;;;;;4997947;28;20027;-91
2022/05/12 10:57:47;;;;;;;13.02;2.95;;;26.60;74.20;;;;;;5006805;28;20141;-91
2022/05/12 11:00:35;;;;;;;15.18;2.83;;;26.70;72.80;;;;;;5017793;28;20042;-89
2022/05/12 11:03:21;;;;;;;10.57;2.42;;;26.90;71.50;;;;;;5015801;28;20033;-91
2022/05/12 11:05:54;;;;;;;10.13;2.80;;;27.00;71.80;;;;;;5015380;28;20034;-83
2022/05/12 11:08:28;;;;;;;10.63;3.03;;;27.10;72.10;;;;;;5015114;28;20125;-92
2022/05/12 11:11:10;;;;;;;10.35;2.40;;;27.20;71.70;;;;;;5015998;28;20080;-91
2022/05/12 11:13:49;;;;;;;12.52;2.70;;;27.30;72.20;;;;;;5015473;28;20116;-92
2022/05/12 11:16:35;;;;;;;10.38;2.63;;;27.50;71.90;;;;;;5016131;28;20120;-92
2022/05/12 11:19:18;;;;;;;;;;;27.30;72.00;;;;;;5017641;28;20088;-94
2022/05/12 11:22:10;;;;;;;18.42;2.58;;;27.20;71.80;;;;;;5015111;28;20274;-90
2022/05/12 11:24:56;;;;;;;13.23;3.20;;;27.30;71.30;;;;;;5015156;28;20099;-92
2022/05/12 11:27:42;;;;;;;;;;;27.10;71.70;;;;;;5020339;28;20058;-87
2022/05/12 11:30:33;;;;;;;10.70;2.35;;;27.30;72.20;;;;;;5024112;28;19999;-84
2022/05/12 11:33:02;;;;;;;13.88;2.60;;;26.80;72.90;;;;;;5014806;28;20022;-83
2022/05/12 11:35:52;;;;;;;10.35;2.20;;;26.60;74.50;;;;;;5012744;28;20117;-89
2022/05/12 11:38:37;;;;;;;12.15;2.53;;;26.70;73.10;;;;;;5016027;28;20472;-89
2022/05/12 11:41:05;;;;;;;14.35;2.50;;;26.70;72.70;;;;;;5014144;28;20132;-90
2022/05/12 11:46:46;;;;;;;17.83;2.75;;;26.50;72.80;;;;;;5015446;28;20061;-90
2022/05/12 11:49:33;;;;;;;11.10;2.50;;;26.70;72.60;;;;;;5014706;28;20053;-87
2022/05/12 11:52:34;;;;;;;13.30;2.60;;;26.70;72.30;;;;;;5014062;28;20062;-84
2022/05/12 11:55:18;;;;;;;13.90;2.75;;;26.70;70.30;;;;;;5014014;28;20026;-84
2022/05/12 11:57:55;;;;;;;13.32;2.80;;;26.80;70.70;;;;;;5012844;28;20026;-85
2022/05/12 12:00:43;;;;;;;12.27;3.08;;;26.80;71.00;;;;;;5012880;28;20037;-83
2022/05/12 12:03:18;;;;;;;10.98;2.75;;;26.90;70.70;;;;;;5011248;28;20037;-84
2022/05/12 12:05:50;;;;;;;9.35;2.50;;;27.00;70.80;;;;;;5013894;28;20017;-85
2022/05/12 12:08:31;;;;;;;8.98;2.20;;;27.00;70.50;;;;;;5012257;28;20038;-83
2022/05/12 12:11:19;;;;;;;12.57;2.65;;;26.90;70.00;;;;;;5013975;28;20084;-83
2022/05/12 12:13:54;;;;;;;10.77;2.75;;;26.70;71.20;;;;;;5013797;28;20422;-83
2022/05/12 12:16:24;;;;;;;11.77;2.50;;;27.00;71.10;;;;;;5013268;28;20053;-83
2022/05/12 12:19:05;;;;;;;13.30;2.40;;;27.00;71.20;;;;;;5013605;28;20030;-83
2022/05/12 12:21:40;;;;;;;12.75;2.35;;;27.00;69.50;;;;;;5014337;28;20421;-83
2022/05/12 12:24:18;;;;;;;9.98;2.90;;;27.10;70.70;;;;;;5014385;28;20463;-82
2022/05/12 12:26:56;;;;;;;14.07;2.47;;;27.10;72.10;;;;;;5014304;28;20455;-83
2022/05/12 12:29:42;;;;;;;11.70;2.55;;;27.20;72.90;;;;;;5014079;28;20030;-83
2022/05/12 12:32:32;;;;;;;10.10;2.30;;;27.20;72.50;;;;;;5014310;28;20076;-82
2022/05/12 12:35:23;;;;;;;14.52;2.53;;;27.20;72.50;;;;;;5013518;28;20025;-83
2022/05/12 12:37:51;;;;;;;15.05;2.60;;;27.30;73.10;;;;;;5013992;28;20049;-83
2022/05/12 12:40:32;;;;;;;7.72;2.00;;;27.20;74.40;;;;;;5013485;28;20370;-83
2022/05/12 12:43:21;;;;;;;17.67;2.92;;;27.30;73.10;;;;;;5014352;28;20489;-82
2022/05/12 12:46:14;;;;;;;13.63;2.83;;;27.20;73.40;;;;;;5014156;28;20475;-83
2022/05/12 12:48:51;;;;;;;11.30;2.47;;;27.20;74.00;;;;;;5013417;28;20029;-83
2022/05/12 12:51:33;;;;;;;10.27;2.97;;;27.30;74.00;;;;;;5013018;28;20156;-83
2022/05/12 12:56:47;;;;;;;15.60;2.90;;;27.00;73.00;;;;;;5012307;28;20100;-82
2022/05/12 12:59:20;;;;;;;9.02;2.60;;;27.10;73.60;;;;;;5012553;28;20044;-82
2022/05/12 13:01:53;;;;;;;15.02;2.70;;;26.90;73.90;;;;;;5012253;28;20026;-83
2022/05/12 13:04:40;;;;;;;14.23;2.70;;;26.90;74.50;;;;;;5013617;28;20026;-84
2022/05/12 13:07:10;;;;;;;10.27;2.80;;;27.00;74.40;;;;;;4993122;28;20030;-84
2022/05/12 13:09:39;;;;;;;13.68;2.92;;;27.10;75.10;;;;;;4992700;28;20450;-83
2022/05/12 13:12:12;;;;;;;12.70;2.63;;;27.10;75.20;;;;;;5021801;28;20072;-82
2022/05/12 13:14:40;;;;;;;12.10;2.63;;;27.20;75.20;;;;;;5032074;28;20029;-82
2022/05/12 13:17:09;;;;;;;11.48;2.58;;;27.20;75.50;;;;;;5032791;28;20458;-83
2022/05/12 13:19:39;;;;;;;14.00;3.08;;;27.20;75.50;;;;;;5032980;28;20037;-82
2022/05/12 13:22:31;;;;;;;9.93;2.92;;;27.30;75.30;;;;;;5032563;28;20067;-82
2022/05/12 13:24:57;;;;;;;14.82;3.00;;;27.50;75.40;;;;;;5032400;28;20095;-83
2022/05/12 13:27:29;;;;;;;10.60;2.42;;;27.60;76.00;;;;;;5032889;28;20540;-83
2022/05/12 13:29:55;;;;;;;8.23;2.40;;;27.30;75.30;;;;;;5032751;28;20029;-83
2022/05/12 13:32:44;;;;;;;12.95;2.65;;;27.40;75.90;;;;;;5026362;28;20018;-83